sensor_id;sensor_type;location;lat;lon;timestamp;P1;durP1;ratioP1;P2;durP2;ratioP2
20623;SDS011;10471;42.736;23.346;2022-10-16T00:00:34;23.60;;;13.00;;
20623;SDS011;10471;42.736;23.346;2022-10-16T00:03:00;18.40;;;11.73;;
20623;SDS011;10471;42.736;23.346;2022-10-16T00:05:27;23.10;;;12.97;;
20623;SDS011;10471;42.736;23.346;2022-10-16T00:07:52;18.77;;;12.43;;
20623;SDS011;10471;42.736;23.346;2022-10-16T00:10:18;23.17;;;12.93;;
20623;SDS011;10471;42.736;23.346;2022-10-16T00:12:43;19.47;;;12.90;;
20623;SDS011;10471;42.736;23.346;2022-10-16T00:15:09;20.20;;;13.07;;
20623;SDS011;10471;42.736;23.346;2022-10-16T00:17:34;19.47;;;12.77;;
20623;SDS011;10471;42.736;23.346;2022-10-16T00:20:00;20.87;;;12.73;;
20623;SDS011;10471;42.736;23.346;2022-10-16T00:22:25;22.03;;;13.53;;
20623;SDS011;10471;42.736;23.346;2022-10-16T00:24:51;21.07;;;12.87;;
20623;SDS011;10471;42.736;23.346;2022-10-16T00:27:16;16.87;;;11.70;;
20623;SDS011;10471;42.736;23.346;2022-10-16T00:29:42;22.70;;;13.20;;
20623;SDS011;10471;42.736;23.346;2022-10-16T00:32:07;17.73;;;12.37;;
20623;SDS011;10471;42.736;23.346;2022-10-16T00:34:33;21.37;;;13.63;;
20623;SDS011;10471;42.736;23.346;2022-10-16T00:36:58;19.53;;;13.70;;
20623;SDS011;10471;42.736;23.346;2022-10-16T00:39:24;20.67;;;13.60;;
20623;SDS011;10471;42.736;23.346;2022-10-16T00:41:50;17.27;;;12.33;;
20623;SDS011;10471;42.736;23.346;2022-10-16T00:47:17;21.70;;;13.40;;
20623;SDS011;10471;42.736;23.346;2022-10-16T00:49:43;23.23;;;14.07;;
20623;SDS011;10471;42.736;23.346;2022-10-16T00:52:09;22.70;;;12.70;;
20623;SDS011;10471;42.736;23.346;2022-10-16T00:54:35;18.73;;;13.20;;
20623;SDS011;10471;42.736;23.346;2022-10-16T00:57:03;20.43;;;12.83;;
20623;SDS011;10471;42.736;23.346;2022-10-16T00:59:35;19.23;;;12.17;;
20623;SDS011;10471;42.736;23.346;2022-10-16T01:02:04;18.53;;;12.53;;
20623;SDS011;10471;42.736;23.346;2022-10-16T01:04:36;20.80;;;12.90;;
20623;SDS011;10471;42.736;23.346;2022-10-16T01:17:36;21.97;;;13.47;;
20623;SDS011;10471;42.736;23.346;2022-10-16T01:25:53;25.73;;;17.43;;
20623;SDS011;10471;42.736;23.346;2022-10-16T01:28:41;28.73;;;18.43;;
20623;SDS011;10471;42.736;23.346;2022-10-16T01:31:19;27.33;;;16.57;;
20623;SDS011;10471;42.736;23.346;2022-10-16T01:34:10;24.20;;;15.97;;
20623;SDS011;10471;42.736;23.346;2022-10-16T01:36:46;27.67;;;17.10;;
20623;SDS011;10471;42.736;23.346;2022-10-16T01:39:16;26.70;;;17.87;;
20623;SDS011;10471;42.736;23.346;2022-10-16T01:41:48;28.13;;;18.10;;
20623;SDS011;10471;42.736;23.346;2022-10-16T01:44:20;27.60;;;17.00;;
20623;SDS011;10471;42.736;23.346;2022-10-16T01:46:50;24.47;;;16.30;;
20623;SDS011;10471;42.736;23.346;2022-10-16T01:49:18;25.00;;;15.87;;
20623;SDS011;10471;42.736;23.346;2022-10-16T01:51:47;22.33;;;15.00;;
20623;SDS011;10471;42.736;23.346;2022-10-16T01:54:17;23.90;;;15.27;;
20623;SDS011;10471;42.736;23.346;2022-10-16T01:56:45;22.97;;;15.43;;
20623;SDS011;10471;42.736;23.346;2022-10-16T01:59:13;19.63;;;14.60;;
20623;SDS011;10471;42.736;23.346;2022-10-16T02:01:45;29.23;;;16.57;;
20623;SDS011;10471;42.736;23.346;2022-10-16T02:04:23;35.40;;;19.77;;
20623;SDS011;10471;42.736;23.346;2022-10-16T02:07:02;29.87;;;16.87;;
20623;SDS011;10471;42.736;23.346;2022-10-16T02:09:29;32.20;;;19.07;;
20623;SDS011;10471;42.736;23.346;2022-10-16T02:11:56;29.90;;;17.47;;
20623;SDS011;10471;42.736;23.346;2022-10-16T02:14:24;32.33;;;18.23;;
20623;SDS011;10471;42.736;23.346;2022-10-16T02:16:50;29.60;;;17.63;;
20623;SDS011;10471;42.736;23.346;2022-10-16T02:19:16;30.63;;;18.37;;
20623;SDS011;10471;42.736;23.346;2022-10-16T02:21:51;73.33;;;37.80;;
20623;SDS011;10471;42.736;23.346;2022-10-16T02:27:11;63.70;;;34.07;;
20623;SDS011;10471;42.736;23.346;2022-10-16T02:29:45;48.27;;;26.30;;
20623;SDS011;10471;42.736;23.346;2022-10-16T02:32:15;45.50;;;24.37;;
20623;SDS011;10471;42.736;23.346;2022-10-16T02:34:45;36.67;;;22.27;;
20623;SDS011;10471;42.736;23.346;2022-10-16T02:37:13;30.70;;;18.43;;
20623;SDS011;10471;42.736;23.346;2022-10-16T02:39:39;31.27;;;17.73;;
20623;SDS011;10471;42.736;23.346;2022-10-16T02:42:09;32.53;;;19.33;;
20623;SDS011;10471;42.736;23.346;2022-10-16T02:44:38;36.00;;;20.57;;
20623;SDS011;10471;42.736;23.346;2022-10-16T02:47:04;34.70;;;20.73;;
20623;SDS011;10471;42.736;23.346;2022-10-16T02:49:29;33.83;;;19.40;;
20623;SDS011;10471;42.736;23.346;2022-10-16T02:51:55;29.13;;;17.77;;
20623;SDS011;10471;42.736;23.346;2022-10-16T02:54:20;22.87;;;14.43;;
20623;SDS011;10471;42.736;23.346;2022-10-16T02:56:45;24.50;;;15.90;;
20623;SDS011;10471;42.736;23.346;2022-10-16T02:59:11;26.53;;;14.37;;
20623;SDS011;10471;42.736;23.346;2022-10-16T03:01:36;23.17;;;14.00;;
20623;SDS011;10471;42.736;23.346;2022-10-16T03:04:02;25.33;;;13.57;;
20623;SDS011;10471;42.736;23.346;2022-10-16T03:06:27;22.07;;;13.83;;
20623;SDS011;10471;42.736;23.346;2022-10-16T03:08:53;22.03;;;13.10;;
20623;SDS011;10471;42.736;23.346;2022-10-16T03:11:18;19.97;;;13.33;;
20623;SDS011;10471;42.736;23.346;2022-10-16T03:13:43;21.43;;;13.60;;
20623;SDS011;10471;42.736;23.346;2022-10-16T03:16:09;21.33;;;13.87;;
20623;SDS011;10471;42.736;23.346;2022-10-16T03:18:34;27.47;;;13.83;;
20623;SDS011;10471;42.736;23.346;2022-10-16T03:20:59;24.20;;;14.03;;
20623;SDS011;10471;42.736;23.346;2022-10-16T03:23:25;24.97;;;14.73;;
20623;SDS011;10471;42.736;23.346;2022-10-16T03:25:51;22.60;;;15.73;;
20623;SDS011;10471;42.736;23.346;2022-10-16T03:28:17;25.47;;;14.07;;
20623;SDS011;10471;42.736;23.346;2022-10-16T03:30:43;20.47;;;14.03;;
20623;SDS011;10471;42.736;23.346;2022-10-16T03:33:08;19.70;;;13.57;;
20623;SDS011;10471;42.736;23.346;2022-10-16T03:35:34;21.67;;;13.07;;
20623;SDS011;10471;42.736;23.346;2022-10-16T03:37:59;19.57;;;13.13;;
20623;SDS011;10471;42.736;23.346;2022-10-16T03:40:24;20.03;;;13.53;;
20623;SDS011;10471;42.736;23.346;2022-10-16T03:42:50;19.97;;;13.03;;
20623;SDS011;10471;42.736;23.346;2022-10-16T03:45:15;20.43;;;12.87;;
20623;SDS011;10471;42.736;23.346;2022-10-16T03:47:41;19.20;;;12.80;;
20623;SDS011;10471;42.736;23.346;2022-10-16T03:50:06;21.47;;;13.00;;
20623;SDS011;10471;42.736;23.346;2022-10-16T03:52:32;20.17;;;13.17;;
20623;SDS011;10471;42.736;23.346;2022-10-16T03:54:57;23.47;;;13.57;;
20623;SDS011;10471;42.736;23.346;2022-10-16T03:57:23;23.80;;;13.63;;
20623;SDS011;10471;42.736;23.346;2022-10-16T03:59:48;23.10;;;14.47;;
20623;SDS011;10471;42.736;23.346;2022-10-16T04:02:14;23.57;;;14.57;;
20623;SDS011;10471;42.736;23.346;2022-10-16T04:04:39;26.20;;;14.77;;
20623;SDS011;10471;42.736;23.346;2022-10-16T04:07:04;22.77;;;13.87;;
20623;SDS011;10471;42.736;23.346;2022-10-16T04:09:30;25.03;;;14.07;;
20623;SDS011;10471;42.736;23.346;2022-10-16T04:11:55;20.70;;;14.57;;
20623;SDS011;10471;42.736;23.346;2022-10-16T04:14:21;19.73;;;14.07;;
20623;SDS011;10471;42.736;23.346;2022-10-16T04:16:46;24.87;;;13.93;;
20623;SDS011;10471;42.736;23.346;2022-10-16T04:19:11;26.17;;;13.80;;
20623;SDS011;10471;42.736;23.346;2022-10-16T04:21:37;25.00;;;13.17;;
20623;SDS011;10471;42.736;23.346;2022-10-16T04:24:03;25.27;;;14.40;;
20623;SDS011;10471;42.736;23.346;2022-10-16T04:26:28;22.70;;;15.37;;
20623;SDS011;10471;42.736;23.346;2022-10-16T04:28:54;23.90;;;13.97;;
20623;SDS011;10471;42.736;23.346;2022-10-16T04:31:20;24.77;;;13.20;;
20623;SDS011;10471;42.736;23.346;2022-10-16T04:33:45;27.17;;;15.17;;
20623;SDS011;10471;42.736;23.346;2022-10-16T04:36:11;41.23;;;15.80;;
20623;SDS011;10471;42.736;23.346;2022-10-16T04:38:36;41.53;;;16.17;;
20623;SDS011;10471;42.736;23.346;2022-10-16T04:41:02;42.67;;;18.90;;
20623;SDS011;10471;42.736;23.346;2022-10-16T04:43:28;27.80;;;15.10;;
20623;SDS011;10471;42.736;23.346;2022-10-16T04:45:54;33.20;;;15.80;;
20623;SDS011;10471;42.736;23.346;2022-10-16T04:48:19;35.83;;;16.77;;
20623;SDS011;10471;42.736;23.346;2022-10-16T04:50:45;34.07;;;16.73;;
20623;SDS011;10471;42.736;23.346;2022-10-16T04:53:11;34.43;;;16.30;;
20623;SDS011;10471;42.736;23.346;2022-10-16T04:55:37;45.10;;;18.77;;
20623;SDS011;10471;42.736;23.346;2022-10-16T04:58:03;35.03;;;17.70;;
20623;SDS011;10471;42.736;23.346;2022-10-16T05:00:28;37.53;;;17.60;;
20623;SDS011;10471;42.736;23.346;2022-10-16T05:02:54;39.20;;;17.90;;
20623;SDS011;10471;42.736;23.346;2022-10-16T05:05:19;46.10;;;18.70;;
20623;SDS011;10471;42.736;23.346;2022-10-16T05:07:45;37.03;;;19.10;;
20623;SDS011;10471;42.736;23.346;2022-10-16T05:10:11;40.87;;;19.10;;
20623;SDS011;10471;42.736;23.346;2022-10-16T05:12:36;35.87;;;17.43;;
20623;SDS011;10471;42.736;23.346;2022-10-16T05:15:02;31.80;;;16.70;;
20623;SDS011;10471;42.736;23.346;2022-10-16T05:17:28;26.53;;;15.60;;
20623;SDS011;10471;42.736;23.346;2022-10-16T05:19:53;25.53;;;15.77;;
20623;SDS011;10471;42.736;23.346;2022-10-16T05:22:20;29.67;;;14.67;;
20623;SDS011;10471;42.736;23.346;2022-10-16T05:24:45;28.00;;;16.13;;
20623;SDS011;10471;42.736;23.346;2022-10-16T05:27:11;26.30;;;15.57;;
20623;SDS011;10471;42.736;23.346;2022-10-16T05:29:43;25.33;;;14.93;;
20623;SDS011;10471;42.736;23.346;2022-10-16T05:32:12;25.57;;;14.20;;
20623;SDS011;10471;42.736;23.346;2022-10-16T05:34:38;24.80;;;16.10;;
20623;SDS011;10471;42.736;23.346;2022-10-16T05:37:03;38.23;;;19.03;;
20623;SDS011;10471;42.736;23.346;2022-10-16T05:39:29;38.33;;;21.10;;
20623;SDS011;10471;42.736;23.346;2022-10-16T05:41:54;38.67;;;22.50;;
20623;SDS011;10471;42.736;23.346;2022-10-16T05:44:19;43.50;;;24.33;;
20623;SDS011;10471;42.736;23.346;2022-10-16T05:46:45;40.10;;;25.20;;
20623;SDS011;10471;42.736;23.346;2022-10-16T05:49:11;37.80;;;23.03;;
20623;SDS011;10471;42.736;23.346;2022-10-16T05:51:36;28.93;;;18.13;;
20623;SDS011;10471;42.736;23.346;2022-10-16T05:54:02;34.10;;;20.63;;
20623;SDS011;10471;42.736;23.346;2022-10-16T05:56:27;30.97;;;17.40;;
20623;SDS011;10471;42.736;23.346;2022-10-16T05:58:53;24.57;;;14.87;;
20623;SDS011;10471;42.736;23.346;2022-10-16T06:01:18;19.93;;;12.80;;
20623;SDS011;10471;42.736;23.346;2022-10-16T06:03:45;22.37;;;12.00;;
20623;SDS011;10471;42.736;23.346;2022-10-16T06:06:12;19.77;;;12.90;;
20623;SDS011;10471;42.736;23.346;2022-10-16T06:08:42;17.57;;;12.63;;
20623;SDS011;10471;42.736;23.346;2022-10-16T06:11:09;18.53;;;12.10;;
20623;SDS011;10471;42.736;23.346;2022-10-16T06:13:37;18.27;;;12.83;;
20623;SDS011;10471;42.736;23.346;2022-10-16T06:16:03;18.23;;;12.90;;
20623;SDS011;10471;42.736;23.346;2022-10-16T06:18:29;18.97;;;12.37;;
20623;SDS011;10471;42.736;23.346;2022-10-16T06:20:56;22.17;;;13.23;;
20623;SDS011;10471;42.736;23.346;2022-10-16T06:23:22;17.77;;;13.00;;
20623;SDS011;10471;42.736;23.346;2022-10-16T06:25:48;21.13;;;12.90;;
20623;SDS011;10471;42.736;23.346;2022-10-16T06:28:13;22.53;;;13.40;;
20623;SDS011;10471;42.736;23.346;2022-10-16T06:30:39;19.83;;;12.33;;
20623;SDS011;10471;42.736;23.346;2022-10-16T06:33:05;16.17;;;12.13;;
20623;SDS011;10471;42.736;23.346;2022-10-16T06:35:30;20.13;;;13.10;;
20623;SDS011;10471;42.736;23.346;2022-10-16T06:37:57;22.30;;;14.53;;
20623;SDS011;10471;42.736;23.346;2022-10-16T06:40:22;18.57;;;12.67;;
20623;SDS011;10471;42.736;23.346;2022-10-16T06:42:48;16.93;;;12.93;;
20623;SDS011;10471;42.736;23.346;2022-10-16T06:45:13;19.87;;;13.27;;
20623;SDS011;10471;42.736;23.346;2022-10-16T06:47:38;17.37;;;12.77;;
20623;SDS011;10471;42.736;23.346;2022-10-16T06:50:04;20.67;;;13.50;;
20623;SDS011;10471;42.736;23.346;2022-10-16T06:52:32;21.00;;;13.13;;
20623;SDS011;10471;42.736;23.346;2022-10-16T06:54:58;20.40;;;13.87;;
20623;SDS011;10471;42.736;23.346;2022-10-16T06:57:23;22.23;;;13.67;;
20623;SDS011;10471;42.736;23.346;2022-10-16T06:59:49;20.30;;;13.10;;
20623;SDS011;10471;42.736;23.346;2022-10-16T07:02:14;20.10;;;13.83;;
20623;SDS011;10471;42.736;23.346;2022-10-16T07:04:39;26.63;;;14.03;;
20623;SDS011;10471;42.736;23.346;2022-10-16T07:07:05;16.23;;;12.73;;
20623;SDS011;10471;42.736;23.346;2022-10-16T07:09:30;18.27;;;13.00;;
20623;SDS011;10471;42.736;23.346;2022-10-16T07:11:56;18.40;;;13.37;;
20623;SDS011;10471;42.736;23.346;2022-10-16T07:14:22;17.83;;;12.77;;
20623;SDS011;10471;42.736;23.346;2022-10-16T07:16:47;24.87;;;18.80;;
20623;SDS011;10471;42.736;23.346;2022-10-16T07:19:13;17.70;;;12.90;;
20623;SDS011;10471;42.736;23.346;2022-10-16T07:21:40;19.87;;;12.30;;
20623;SDS011;10471;42.736;23.346;2022-10-16T07:24:10;18.43;;;11.70;;
20623;SDS011;10471;42.736;23.346;2022-10-16T07:26:37;18.77;;;11.70;;
20623;SDS011;10471;42.736;23.346;2022-10-16T07:29:04;16.57;;;11.73;;
20623;SDS011;10471;42.736;23.346;2022-10-16T07:31:31;15.33;;;11.63;;
20623;SDS011;10471;42.736;23.346;2022-10-16T07:33:58;17.17;;;10.97;;
20623;SDS011;10471;42.736;23.346;2022-10-16T07:36:24;17.83;;;10.90;;
20623;SDS011;10471;42.736;23.346;2022-10-16T07:38:50;12.70;;;10.57;;
20623;SDS011;10471;42.736;23.346;2022-10-16T07:41:16;13.70;;;9.17;;
20623;SDS011;10471;42.736;23.346;2022-10-16T07:43:47;13.57;;;9.10;;
20623;SDS011;10471;42.736;23.346;2022-10-16T07:46:13;13.30;;;9.37;;
20623;SDS011;10471;42.736;23.346;2022-10-16T07:48:41;12.00;;;9.10;;
20623;SDS011;10471;42.736;23.346;2022-10-16T07:51:10;12.47;;;9.90;;
20623;SDS011;10471;42.736;23.346;2022-10-16T07:53:37;14.03;;;10.33;;
20623;SDS011;10471;42.736;23.346;2022-10-16T07:56:03;12.73;;;10.63;;
20623;SDS011;10471;42.736;23.346;2022-10-16T07:58:31;14.60;;;10.80;;
20623;SDS011;10471;42.736;23.346;2022-10-16T08:00:57;12.43;;;9.77;;
20623;SDS011;10471;42.736;23.346;2022-10-16T08:03:23;14.37;;;9.40;;
20623;SDS011;10471;42.736;23.346;2022-10-16T08:05:49;13.83;;;9.37;;
20623;SDS011;10471;42.736;23.346;2022-10-16T08:08:15;16.10;;;9.43;;
20623;SDS011;10471;42.736;23.346;2022-10-16T08:10:41;12.10;;;9.33;;
20623;SDS011;10471;42.736;23.346;2022-10-16T08:13:07;13.50;;;9.43;;
20623;SDS011;10471;42.736;23.346;2022-10-16T08:15:32;14.20;;;9.93;;
20623;SDS011;10471;42.736;23.346;2022-10-16T08:17:58;14.53;;;9.80;;
20623;SDS011;10471;42.736;23.346;2022-10-16T08:20:26;13.93;;;9.47;;
20623;SDS011;10471;42.736;23.346;2022-10-16T08:22:52;13.90;;;9.77;;
20623;SDS011;10471;42.736;23.346;2022-10-16T08:25:19;14.17;;;10.03;;
20623;SDS011;10471;42.736;23.346;2022-10-16T08:27:46;12.23;;;9.63;;
20623;SDS011;10471;42.736;23.346;2022-10-16T08:30:11;15.87;;;10.33;;
20623;SDS011;10471;42.736;23.346;2022-10-16T08:32:37;16.53;;;10.83;;
20623;SDS011;10471;42.736;23.346;2022-10-16T08:35:03;17.63;;;10.27;;
20623;SDS011;10471;42.736;23.346;2022-10-16T08:37:32;14.70;;;9.90;;
20623;SDS011;10471;42.736;23.346;2022-10-16T08:39:58;17.97;;;10.27;;
20623;SDS011;10471;42.736;23.346;2022-10-16T08:48:30;9.33;;;7.87;;
20623;SDS011;10471;42.736;23.346;2022-10-16T08:51:26;8.77;;;6.50;;
20623;SDS011;10471;42.736;23.346;2022-10-16T08:53:56;9.37;;;6.40;;
20623;SDS011;10471;42.736;23.346;2022-10-16T08:56:24;9.63;;;6.27;;
20623;SDS011;10471;42.736;23.346;2022-10-16T08:58:52;7.83;;;5.53;;
20623;SDS011;10471;42.736;23.346;2022-10-16T09:01:20;8.00;;;4.97;;
20623;SDS011;10471;42.736;23.346;2022-10-16T09:17:04;7.47;;;5.03;;
20623;SDS011;10471;42.736;23.346;2022-10-16T09:19:44;8.33;;;5.43;;
20623;SDS011;10471;42.736;23.346;2022-10-16T09:22:15;8.13;;;6.00;;
20623;SDS011;10471;42.736;23.346;2022-10-16T09:24:42;10.20;;;6.70;;
20623;SDS011;10471;42.736;23.346;2022-10-16T09:27:11;11.17;;;6.00;;
20623;SDS011;10471;42.736;23.346;2022-10-16T09:29:38;10.60;;;5.20;;
20623;SDS011;10471;42.736;23.346;2022-10-16T09:32:10;8.13;;;5.23;;
20623;SDS011;10471;42.736;23.346;2022-10-16T09:34:40;7.73;;;4.93;;
20623;SDS011;10471;42.736;23.346;2022-10-16T09:37:09;9.70;;;5.60;;
20623;SDS011;10471;42.736;23.346;2022-10-16T09:39:47;7.53;;;5.07;;
20623;SDS011;10471;42.736;23.346;2022-10-16T09:42:35;10.90;;;4.70;;
20623;SDS011;10471;42.736;23.346;2022-10-16T09:45:02;6.13;;;4.80;;
20623;SDS011;10471;42.736;23.346;2022-10-16T09:47:29;4.93;;;4.27;;
20623;SDS011;10471;42.736;23.346;2022-10-16T09:50:00;8.33;;;4.77;;
20623;SDS011;10471;42.736;23.346;2022-10-16T09:52:30;6.77;;;4.50;;
20623;SDS011;10471;42.736;23.346;2022-10-16T09:54:57;11.20;;;6.10;;
20623;SDS011;10471;42.736;23.346;2022-10-16T09:57:25;6.87;;;5.03;;
20623;SDS011;10471;42.736;23.346;2022-10-16T09:59:55;9.43;;;5.10;;
20623;SDS011;10471;42.736;23.346;2022-10-16T10:04:59;6.13;;;4.63;;
20623;SDS011;10471;42.736;23.346;2022-10-16T10:07:26;5.77;;;4.87;;
20623;SDS011;10471;42.736;23.346;2022-10-16T10:10:02;5.60;;;4.50;;
20623;SDS011;10471;42.736;23.346;2022-10-16T10:12:30;7.03;;;4.90;;
20623;SDS011;10471;42.736;23.346;2022-10-16T10:15:21;8.87;;;4.70;;
20623;SDS011;10471;42.736;23.346;2022-10-16T10:17:51;8.77;;;5.03;;
20623;SDS011;10471;42.736;23.346;2022-10-16T10:23:00;7.60;;;4.37;;
20623;SDS011;10471;42.736;23.346;2022-10-16T10:35:53;7.97;;;4.40;;
20623;SDS011;10471;42.736;23.346;2022-10-16T10:41:20;9.03;;;4.80;;
20623;SDS011;10471;42.736;23.346;2022-10-16T11:07:57;6.80;;;4.60;;
20623;SDS011;10471;42.736;23.346;2022-10-16T11:10:27;5.90;;;4.47;;
20623;SDS011;10471;42.736;23.346;2022-10-16T11:16:15;6.33;;;4.77;;
20623;SDS011;10471;42.736;23.346;2022-10-16T11:21:14;10.97;;;4.33;;
20623;SDS011;10471;42.736;23.346;2022-10-16T11:24:04;6.77;;;4.83;;
20623;SDS011;10471;42.736;23.346;2022-10-16T11:26:39;5.60;;;4.33;;
20623;SDS011;10471;42.736;23.346;2022-10-16T11:29:12;6.37;;;4.20;;
20623;SDS011;10471;42.736;23.346;2022-10-16T11:31:48;7.00;;;4.50;;
20623;SDS011;10471;42.736;23.346;2022-10-16T11:37:06;8.00;;;4.67;;
20623;SDS011;10471;42.736;23.346;2022-10-16T11:39:35;7.27;;;4.50;;
20623;SDS011;10471;42.736;23.346;2022-10-16T11:50:40;6.03;;;4.17;;
20623;SDS011;10471;42.736;23.346;2022-10-16T11:55:56;6.27;;;4.43;;
20623;SDS011;10471;42.736;23.346;2022-10-16T11:58:24;6.13;;;4.20;;
20623;SDS011;10471;42.736;23.346;2022-10-16T12:04:04;7.40;;;3.90;;
20623;SDS011;10471;42.736;23.346;2022-10-16T12:06:39;4.17;;;3.60;;
20623;SDS011;10471;42.736;23.346;2022-10-16T12:09:11;5.40;;;3.63;;
20623;SDS011;10471;42.736;23.346;2022-10-16T12:11:53;4.33;;;3.70;;
20623;SDS011;10471;42.736;23.346;2022-10-16T12:14:20;4.93;;;4.10;;
20623;SDS011;10471;42.736;23.346;2022-10-16T12:17:00;6.53;;;4.10;;
20623;SDS011;10471;42.736;23.346;2022-10-16T12:19:56;4.33;;;3.63;;
20623;SDS011;10471;42.736;23.346;2022-10-16T12:22:41;5.00;;;4.03;;
20623;SDS011;10471;42.736;23.346;2022-10-16T12:30:29;5.27;;;3.37;;
20623;SDS011;10471;42.736;23.346;2022-10-16T12:32:57;5.60;;;3.97;;
20623;SDS011;10471;42.736;23.346;2022-10-16T12:35:27;5.23;;;3.90;;
20623;SDS011;10471;42.736;23.346;2022-10-16T12:38:07;5.03;;;3.73;;
20623;SDS011;10471;42.736;23.346;2022-10-16T12:40:40;5.90;;;3.50;;
20623;SDS011;10471;42.736;23.346;2022-10-16T12:43:27;5.03;;;3.17;;
20623;SDS011;10471;42.736;23.346;2022-10-16T12:46:04;4.67;;;3.03;;
20623;SDS011;10471;42.736;23.346;2022-10-16T12:48:44;8.50;;;3.50;;
20623;SDS011;10471;42.736;23.346;2022-10-16T12:51:12;5.17;;;3.47;;
20623;SDS011;10471;42.736;23.346;2022-10-16T12:54:13;6.23;;;4.20;;
20623;SDS011;10471;42.736;23.346;2022-10-16T12:56:48;22.10;;;9.23;;
20623;SDS011;10471;42.736;23.346;2022-10-16T13:04:42;3.17;;;2.87;;
20623;SDS011;10471;42.736;23.346;2022-10-16T13:07:19;3.63;;;2.93;;
20623;SDS011;10471;42.736;23.346;2022-10-16T13:15:41;3.90;;;2.90;;
20623;SDS011;10471;42.736;23.346;2022-10-16T13:29:40;2.80;;;2.23;;
20623;SDS011;10471;42.736;23.346;2022-10-16T13:32:07;4.10;;;2.40;;
20623;SDS011;10471;42.736;23.346;2022-10-16T13:34:44;3.37;;;2.40;;
20623;SDS011;10471;42.736;23.346;2022-10-16T13:37:21;3.63;;;2.37;;
20623;SDS011;10471;42.736;23.346;2022-10-16T13:39:47;5.97;;;2.70;;
20623;SDS011;10471;42.736;23.346;2022-10-16T13:42:18;3.37;;;2.60;;
20623;SDS011;10471;42.736;23.346;2022-10-16T13:44:52;4.53;;;2.43;;
20623;SDS011;10471;42.736;23.346;2022-10-16T13:47:20;3.80;;;2.47;;
20623;SDS011;10471;42.736;23.346;2022-10-16T13:49:58;3.43;;;2.50;;
20623;SDS011;10471;42.736;23.346;2022-10-16T13:52:25;3.63;;;2.30;;
20623;SDS011;10471;42.736;23.346;2022-10-16T13:54:50;3.53;;;2.50;;
20623;SDS011;10471;42.736;23.346;2022-10-16T13:57:16;5.50;;;2.70;;
20623;SDS011;10471;42.736;23.346;2022-10-16T13:59:42;6.23;;;2.70;;
20623;SDS011;10471;42.736;23.346;2022-10-16T14:05:00;3.53;;;2.50;;
20623;SDS011;10471;42.736;23.346;2022-10-16T14:07:28;5.57;;;2.63;;
20623;SDS011;10471;42.736;23.346;2022-10-16T14:10:01;8.73;;;3.30;;
20623;SDS011;10471;42.736;23.346;2022-10-16T14:12:28;11.07;;;3.07;;
20623;SDS011;10471;42.736;23.346;2022-10-16T14:14:54;7.63;;;2.80;;
20623;SDS011;10471;42.736;23.346;2022-10-16T14:17:33;4.97;;;2.97;;
20623;SDS011;10471;42.736;23.346;2022-10-16T14:20:01;2.80;;;2.50;;
20623;SDS011;10471;42.736;23.346;2022-10-16T14:22:30;9.80;;;3.73;;
20623;SDS011;10471;42.736;23.346;2022-10-16T14:25:00;7.33;;;3.13;;
20623;SDS011;10471;42.736;23.346;2022-10-16T14:27:33;4.67;;;3.00;;
20623;SDS011;10471;42.736;23.346;2022-10-16T14:30:19;9.60;;;3.03;;
20623;SDS011;10471;42.736;23.346;2022-10-16T14:32:57;8.60;;;3.07;;
20623;SDS011;10471;42.736;23.346;2022-10-16T14:35:32;4.60;;;2.80;;
20623;SDS011;10471;42.736;23.346;2022-10-16T14:38:00;4.57;;;2.60;;
20623;SDS011;10471;42.736;23.346;2022-10-16T14:40:31;4.53;;;2.87;;
20623;SDS011;10471;42.736;23.346;2022-10-16T14:42:58;5.27;;;2.90;;
20623;SDS011;10471;42.736;23.346;2022-10-16T14:45:27;5.00;;;2.97;;
20623;SDS011;10471;42.736;23.346;2022-10-16T14:47:58;5.30;;;3.10;;
20623;SDS011;10471;42.736;23.346;2022-10-16T14:50:39;3.73;;;2.87;;
20623;SDS011;10471;42.736;23.346;2022-10-16T14:53:08;5.97;;;3.00;;
20623;SDS011;10471;42.736;23.346;2022-10-16T14:55:37;4.33;;;2.83;;
20623;SDS011;10471;42.736;23.346;2022-10-16T14:58:02;5.13;;;3.00;;
20623;SDS011;10471;42.736;23.346;2022-10-16T15:00:28;5.43;;;3.00;;
20623;SDS011;10471;42.736;23.346;2022-10-16T15:02:53;5.53;;;3.20;;
20623;SDS011;10471;42.736;23.346;2022-10-16T15:05:23;6.73;;;3.10;;
20623;SDS011;10471;42.736;23.346;2022-10-16T15:07:52;9.23;;;3.40;;
20623;SDS011;10471;42.736;23.346;2022-10-16T15:10:20;4.87;;;3.30;;
20623;SDS011;10471;42.736;23.346;2022-10-16T15:12:47;7.20;;;3.57;;
20623;SDS011;10471;42.736;23.346;2022-10-16T15:15:31;5.30;;;3.47;;
20623;SDS011;10471;42.736;23.346;2022-10-16T15:17:59;5.60;;;3.20;;
20623;SDS011;10471;42.736;23.346;2022-10-16T15:20:30;4.83;;;3.27;;
20623;SDS011;10471;42.736;23.346;2022-10-16T15:22:59;4.30;;;3.17;;
20623;SDS011;10471;42.736;23.346;2022-10-16T15:28:01;6.67;;;3.70;;
20623;SDS011;10471;42.736;23.346;2022-10-16T15:30:27;5.97;;;3.90;;
20623;SDS011;10471;42.736;23.346;2022-10-16T15:32:53;6.63;;;4.00;;
20623;SDS011;10471;42.736;23.346;2022-10-16T15:35:18;6.67;;;3.93;;
20623;SDS011;10471;42.736;23.346;2022-10-16T15:37:45;6.57;;;4.37;;
20623;SDS011;10471;42.736;23.346;2022-10-16T15:40:12;8.43;;;4.03;;
20623;SDS011;10471;42.736;23.346;2022-10-16T15:42:37;7.03;;;4.30;;
20623;SDS011;10471;42.736;23.346;2022-10-16T15:45:03;7.37;;;4.00;;
20623;SDS011;10471;42.736;23.346;2022-10-16T15:47:31;7.77;;;3.73;;
20623;SDS011;10471;42.736;23.346;2022-10-16T15:49:56;6.77;;;3.87;;
20623;SDS011;10471;42.736;23.346;2022-10-16T15:52:22;7.50;;;4.23;;
20623;SDS011;10471;42.736;23.346;2022-10-16T15:54:47;7.23;;;4.53;;
20623;SDS011;10471;42.736;23.346;2022-10-16T15:57:13;6.43;;;3.50;;
20623;SDS011;10471;42.736;23.346;2022-10-16T15:59:38;5.10;;;3.33;;
20623;SDS011;10471;42.736;23.346;2022-10-16T16:02:04;10.10;;;5.77;;
20623;SDS011;10471;42.736;23.346;2022-10-16T16:04:29;23.03;;;20.60;;
20623;SDS011;10471;42.736;23.346;2022-10-16T16:06:55;9.03;;;5.30;;
20623;SDS011;10471;42.736;23.346;2022-10-16T16:09:21;8.57;;;3.83;;
20623;SDS011;10471;42.736;23.346;2022-10-16T16:11:46;7.57;;;5.17;;
20623;SDS011;10471;42.736;23.346;2022-10-16T16:14:12;31.60;;;28.40;;
20623;SDS011;10471;42.736;23.346;2022-10-16T16:16:38;15.97;;;9.33;;
20623;SDS011;10471;42.736;23.346;2022-10-16T16:19:05;9.10;;;6.43;;
20623;SDS011;10471;42.736;23.346;2022-10-16T16:21:32;10.27;;;8.07;;
20623;SDS011;10471;42.736;23.346;2022-10-16T16:23:58;20.43;;;13.07;;
20623;SDS011;10471;42.736;23.346;2022-10-16T16:26:25;21.90;;;17.73;;
20623;SDS011;10471;42.736;23.346;2022-10-16T16:28:53;15.03;;;12.07;;
20623;SDS011;10471;42.736;23.346;2022-10-16T16:31:20;16.87;;;11.40;;
20623;SDS011;10471;42.736;23.346;2022-10-16T16:33:49;40.80;;;32.17;;
20623;SDS011;10471;42.736;23.346;2022-10-16T16:36:16;22.90;;;17.93;;
20623;SDS011;10471;42.736;23.346;2022-10-16T16:38:42;20.07;;;17.30;;
20623;SDS011;10471;42.736;23.346;2022-10-16T16:43:37;21.20;;;14.80;;
20623;SDS011;10471;42.736;23.346;2022-10-16T16:46:02;21.00;;;14.13;;
20623;SDS011;10471;42.736;23.346;2022-10-16T16:48:28;13.30;;;8.63;;